createdAt,value
2022-08-22T00:02:19.825Z,2.73
2022-08-22T00:03:04.030Z,4.40
2022-08-22T00:04:56.816Z,2.40
2022-08-22T00:07:37.025Z,3.07
2022-08-22T00:10:12.088Z,2.53
2022-08-22T00:13:01.845Z,2.37
2022-08-22T00:15:43.071Z,2.80
2022-08-22T00:18:17.191Z,2.30
2022-08-22T00:20:50.169Z,2.43
2022-08-22T00:23:24.008Z,2.50
2022-08-22T00:25:58.966Z,2.40
2022-08-22T00:28:35.567Z,2.70
2022-08-22T00:31:15.529Z,2.10
2022-08-22T00:33:49.119Z,2.80
2022-08-22T00:36:25.502Z,1.97
2022-08-22T00:39:00.006Z,2.60
2022-08-22T00:42:10.471Z,1.90
2022-08-22T00:45:14.783Z,2.37
2022-08-22T00:47:57.857Z,2.57
2022-08-22T00:50:44.298Z,2.10
2022-08-22T00:53:37.649Z,2.40
2022-08-22T00:56:50.882Z,2.20
2022-08-22T00:59:39.023Z,2.57
2022-08-22T01:02:21.896Z,2.23
2022-08-22T01:05:17.955Z,2.40
2022-08-22T01:08:03.995Z,2.00
2022-08-22T01:10:50.986Z,2.53
2022-08-22T01:13:35.002Z,2.10
2022-08-22T01:16:21.171Z,2.67
2022-08-22T01:19:23.146Z,2.73
2022-08-22T01:22:24.771Z,2.53
2022-08-22T01:25:33.809Z,2.10
2022-08-22T01:28:27.311Z,2.47
2022-08-22T01:31:46.815Z,2.33
2022-08-22T01:34:57.860Z,2.00
2022-08-22T01:37:48.818Z,2.23
2022-08-22T01:40:53.975Z,2.47
2022-08-22T01:43:59.994Z,2.50
2022-08-22T01:46:35.952Z,2.57
2022-08-22T01:49:13.757Z,2.60
2022-08-22T01:51:47.693Z,2.33
2022-08-22T01:54:30.994Z,2.03
2022-08-22T01:57:03.148Z,2.07
2022-08-22T01:59:42.318Z,2.73
2022-08-22T02:02:38.529Z,2.43
2022-08-22T02:05:20.501Z,2.23
2022-08-22T02:07:58.598Z,2.20
2022-08-22T02:10:48.157Z,1.90
2022-08-22T02:13:34.466Z,2.27
2022-08-22T02:16:12.241Z,2.30
2022-08-22T02:18:57.944Z,2.63
2022-08-22T02:21:40.579Z,2.40
2022-08-22T02:24:24.871Z,2.63
2022-08-22T02:27:06.097Z,2.60
2022-08-22T02:29:41.529Z,2.70
2022-08-22T02:32:19.980Z,3.10
2022-08-22T02:34:59.542Z,2.60
2022-08-22T02:37:35.812Z,3.10
2022-08-22T02:40:11.224Z,3.10
2022-08-22T02:42:44.955Z,2.93
2022-08-22T02:45:38.917Z,2.70
2022-08-22T02:48:15.817Z,2.83
2022-08-22T02:50:52.691Z,2.73
2022-08-22T02:53:29.568Z,2.40
2022-08-22T02:56:03.174Z,2.63
2022-08-22T02:58:43.495Z,2.47
2022-08-22T03:01:34.403Z,2.30
2022-08-22T03:04:23.522Z,2.50
2022-08-22T03:07:09.097Z,2.70
2022-08-22T03:09:41.154Z,3.17
2022-08-22T03:12:22.310Z,2.60
2022-08-22T03:14:59.384Z,2.77
2022-08-22T03:17:32.588Z,3.10
2022-08-22T03:20:07.147Z,2.87
2022-08-22T03:22:45.766Z,2.80
2022-08-22T03:25:26.977Z,2.83
2022-08-22T03:28:00.514Z,2.57
2022-08-22T03:30:38.667Z,3.07
2022-08-22T03:33:19.676Z,3.47
2022-08-22T03:36:04.974Z,2.40
2022-08-22T03:38:47.788Z,3.20
2022-08-22T03:41:39.252Z,3.20
2022-08-22T03:44:54.066Z,3.07
2022-08-22T03:47:51.759Z,2.83
2022-08-22T03:50:55.108Z,2.43
2022-08-22T03:53:37.820Z,2.77
2022-08-22T03:56:40.773Z,2.43
2022-08-22T03:59:42.529Z,3.20
2022-08-22T04:02:42.845Z,3.00
2022-08-22T04:05:34.633Z,3.40
2022-08-22T04:08:31.776Z,3.40
2022-08-22T04:11:41.296Z,3.13
2022-08-22T04:14:26.324Z,2.83
2022-08-22T04:17:13.005Z,3.23
2022-08-22T04:20:06.316Z,3.40
2022-08-22T04:22:53.728Z,2.60
2022-08-22T04:25:25.561Z,3.10
2022-08-22T04:27:59.534Z,2.90
2022-08-22T04:30:34.383Z,2.87
2022-08-22T04:33:09.729Z,3.70
2022-08-22T04:35:44.032Z,4.03
2022-08-22T04:38:17.897Z,3.00
2022-08-22T04:40:51.532Z,4.50
2022-08-22T04:43:25.592Z,2.97
2022-08-22T04:45:58.881Z,4.43
2022-08-22T04:48:33.575Z,3.57
2022-08-22T04:51:11.333Z,4.43
2022-08-22T04:54:03.398Z,3.87
2022-08-22T04:56:39.949Z,3.60
2022-08-22T04:59:12.216Z,3.37
2022-08-22T05:01:44.360Z,3.20
2022-08-22T05:04:17.482Z,2.90
2022-08-22T05:06:51.615Z,2.67
2022-08-22T05:09:25.691Z,3.80
2022-08-22T05:11:58.055Z,3.27
2022-08-22T05:14:34.745Z,3.90
2022-08-22T05:17:04.365Z,3.40
2022-08-22T05:19:35.793Z,3.60
2022-08-22T05:22:07.805Z,3.00
2022-08-22T05:24:40.523Z,3.50
2022-08-22T05:27:12.478Z,3.47
2022-08-22T05:29:43.580Z,3.10
2022-08-22T05:32:18.669Z,3.60
2022-08-22T05:34:48.949Z,3.80
2022-08-22T05:37:27.087Z,3.40
2022-08-22T05:39:59.267Z,3.60
2022-08-22T05:42:31.653Z,3.20
2022-08-22T05:45:03.064Z,3.27
2022-08-22T05:47:37.667Z,3.60
2022-08-22T05:50:09.864Z,3.40
2022-08-22T05:52:54.845Z,4.20
2022-08-22T05:55:28.081Z,3.80
2022-08-22T05:58:13.847Z,4.53
2022-08-22T06:00:48.348Z,4.80
2022-08-22T06:03:25.253Z,5.03
2022-08-22T06:05:57.459Z,4.80
2022-08-22T06:08:36.207Z,5.27
2022-08-22T06:11:09.218Z,5.50
2022-08-22T06:13:41.397Z,4.50
2022-08-22T06:16:16.899Z,4.47
2022-08-22T06:18:46.385Z,3.93
2022-08-22T06:21:21.377Z,3.93
2022-08-22T06:23:56.660Z,4.43
2022-08-22T06:26:26.658Z,3.37
2022-08-22T06:28:59.064Z,3.57
2022-08-22T06:31:31.876Z,3.77
2022-08-22T06:34:04.381Z,3.43
2022-08-22T06:36:35.838Z,3.90
2022-08-22T06:39:15.723Z,4.23
2022-08-22T06:41:50.886Z,3.63
2022-08-22T06:44:23.133Z,3.50
2022-08-22T06:46:54.702Z,3.10
2022-08-22T06:49:24.635Z,3.70
2022-08-22T06:51:54.770Z,3.40
2022-08-22T06:54:32.496Z,3.30
2022-08-22T06:57:07.655Z,3.67
2022-08-22T06:59:39.349Z,3.60
2022-08-22T07:02:17.476Z,4.10
2022-08-22T07:04:49.710Z,3.30
2022-08-22T07:07:20.769Z,3.70
2022-08-22T07:09:55.424Z,3.57
2022-08-22T07:12:29.711Z,3.10
2022-08-22T07:15:12.130Z,3.40
2022-08-22T07:17:50.589Z,3.20
2022-08-22T07:20:25.521Z,3.30
2022-08-22T07:22:58.193Z,3.23
2022-08-22T07:25:29.013Z,3.90
2022-08-22T07:28:16.320Z,4.07
2022-08-22T07:30:56.410Z,4.03
2022-08-22T07:33:42.409Z,3.03
2022-08-22T07:36:23.233Z,3.53
2022-08-22T07:39:11.223Z,2.70
2022-08-22T07:41:52.624Z,2.97
2022-08-22T07:44:25.412Z,2.90
2022-08-22T07:47:00.311Z,2.90
2022-08-22T07:49:31.651Z,3.57
2022-08-22T07:52:03.812Z,3.17
2022-08-22T07:54:38.657Z,3.50
2022-08-22T07:57:13.993Z,3.33
2022-08-22T07:59:48.364Z,3.00
2022-08-22T08:02:19.604Z,4.10
2022-08-22T08:04:50.293Z,3.03
2022-08-22T08:07:22.270Z,2.83
2022-08-22T08:09:54.286Z,2.90
2022-08-22T08:12:31.812Z,4.50
2022-08-22T08:15:01.082Z,3.60
2022-08-22T08:17:35.396Z,2.97
2022-08-22T08:20:09.829Z,3.10
2022-08-22T08:22:39.463Z,3.57
2022-08-22T08:25:09.275Z,3.20
2022-08-22T08:27:57.490Z,3.60
2022-08-22T08:30:37.598Z,3.23
2022-08-22T08:33:24.236Z,3.27
2022-08-22T08:36:02.592Z,3.10
2022-08-22T08:38:36.855Z,3.40
2022-08-22T08:41:41.431Z,3.50
2022-08-22T08:44:27.094Z,3.70
2022-08-22T08:47:17.113Z,3.33
2022-08-22T08:50:17.446Z,4.10
2022-08-22T08:53:03.430Z,3.90
2022-08-22T08:55:44.902Z,4.03
2022-08-22T08:58:34.147Z,3.60
2022-08-22T09:01:29.627Z,4.13
2022-08-22T09:04:31.825Z,3.33
2022-08-22T09:07:32.986Z,3.10
2022-08-22T09:10:29.540Z,4.10
2022-08-22T09:13:14.641Z,3.50
2022-08-22T09:16:04.969Z,3.80
2022-08-22T09:18:57.854Z,3.70
2022-08-22T09:22:00.019Z,3.20
2022-08-22T09:25:16.127Z,3.57
2022-08-22T09:27:52.818Z,3.20
2022-08-22T09:30:28.764Z,3.20
2022-08-22T09:33:00.876Z,2.77
2022-08-22T09:35:44.710Z,3.43
2022-08-22T09:38:27.562Z,3.77
2022-08-22T09:41:06.963Z,2.77
2022-08-22T09:43:44.211Z,2.90
2022-08-22T09:46:22.363Z,2.90
2022-08-22T09:49:05.496Z,2.87
2022-08-22T09:51:42.807Z,2.57
2022-08-22T09:54:18.713Z,2.80
2022-08-22T09:56:57.531Z,2.57
2022-08-22T09:59:49.349Z,2.83
2022-08-22T10:02:29.639Z,2.50
2022-08-22T10:05:08.443Z,2.83
2022-08-22T10:08:07.212Z,2.57
2022-08-22T10:11:01.943Z,2.23
2022-08-22T10:13:57.248Z,2.43
2022-08-22T10:16:34.151Z,2.70
2022-08-22T10:19:16.577Z,2.47
2022-08-22T10:22:06.312Z,2.47
2022-08-22T10:24:46.272Z,2.17
2022-08-22T10:27:20.380Z,1.90
2022-08-22T10:30:04.726Z,1.97
2022-08-22T10:32:39.850Z,2.10
2022-08-22T10:35:20.958Z,2.10
2022-08-22T10:37:57.638Z,1.87
2022-08-22T10:40:33.176Z,2.10
2022-08-22T10:43:12.299Z,2.23
2022-08-22T10:45:44.710Z,2.00
2022-08-22T10:48:35.566Z,1.80
2022-08-22T10:51:12.716Z,1.90
2022-08-22T10:53:55.913Z,1.90
2022-08-22T10:56:30.461Z,2.10
2022-08-22T10:59:09.566Z,2.20
2022-08-22T11:01:48.238Z,2.13
2022-08-22T11:04:30.470Z,1.83
2022-08-22T11:07:15.249Z,2.20
2022-08-22T11:09:44.741Z,2.50
2022-08-22T11:12:23.421Z,2.10
2022-08-22T11:15:10.572Z,2.17
2022-08-22T11:18:21.779Z,2.40
2022-08-22T11:21:00.191Z,1.90
2022-08-22T11:23:41.936Z,2.30
2022-08-22T11:26:46.659Z,2.00
2022-08-22T11:29:27.764Z,2.00
2022-08-22T11:32:07.785Z,1.80
2022-08-22T11:34:47.880Z,1.67
2022-08-22T11:37:43.390Z,1.93
2022-08-22T11:40:25.751Z,1.70
2022-08-22T11:43:03.177Z,2.30
2022-08-22T11:45:40.802Z,2.03
2022-08-22T11:48:17.695Z,2.03
2022-08-22T11:50:51.339Z,2.17
2022-08-22T11:53:27.535Z,1.63
2022-08-22T11:56:10.429Z,1.73
2022-08-22T11:58:51.132Z,1.97
2022-08-22T12:01:35.401Z,1.77
2022-08-22T12:04:12.951Z,1.83
2022-08-22T12:07:01.861Z,1.30
2022-08-22T12:09:47.809Z,1.60
2022-08-22T12:12:27.669Z,1.73
2022-08-22T12:15:02.175Z,1.90
2022-08-22T12:18:04.405Z,1.97
2022-08-22T12:20:54.380Z,1.80
2022-08-22T12:23:49.195Z,1.50
2022-08-22T12:26:27.998Z,1.90
2022-08-22T12:29:15.470Z,1.87
2022-08-22T12:32:20.630Z,2.00
2022-08-22T12:35:16.886Z,1.60
2022-08-22T12:37:56.586Z,1.60
2022-08-22T12:40:38.226Z,1.50
2022-08-22T12:43:32.370Z,1.77
2022-08-22T12:46:20.656Z,1.53
2022-08-22T12:49:07.667Z,1.63
2022-08-22T12:51:58.097Z,1.67
2022-08-22T12:54:59.326Z,1.80
2022-08-22T12:57:42.952Z,2.00
2022-08-22T13:00:26.757Z,1.80
2022-08-22T13:02:56.862Z,2.10
2022-08-22T13:05:30.601Z,2.10
2022-08-22T13:08:07.702Z,1.87
2022-08-22T13:10:47.881Z,2.00
2022-08-22T13:13:36.446Z,1.67
2022-08-22T13:16:11.689Z,1.80
2022-08-22T13:18:46.584Z,1.47
2022-08-22T13:21:31.440Z,1.60
2022-08-22T13:24:10.832Z,1.83
2022-08-22T13:26:49.369Z,1.83
2022-08-22T13:29:27.112Z,2.07
2022-08-22T13:32:00.236Z,1.60
2022-08-22T13:34:47.785Z,1.50
2022-08-22T13:37:24.459Z,1.50
2022-08-22T13:40:01.773Z,1.87
2022-08-22T13:42:33.528Z,1.83
2022-08-22T13:45:05.713Z,1.57
2022-08-22T13:47:39.321Z,1.80
2022-08-22T13:50:13.949Z,1.70
2022-08-22T13:52:49.401Z,1.60
2022-08-22T13:55:36.537Z,1.63
2022-08-22T13:58:11.404Z,1.63
2022-08-22T14:01:18.745Z,1.60
2022-08-22T14:03:50.992Z,1.67
2022-08-22T14:06:37.666Z,1.90
2022-08-22T14:09:17.585Z,1.70
2022-08-22T14:12:12.061Z,1.60
2022-08-22T14:14:46.495Z,1.63
2022-08-22T14:17:22.196Z,1.70
2022-08-22T14:19:59.505Z,1.93
2022-08-22T14:22:35.347Z,1.40
2022-08-22T14:25:10.404Z,1.83
2022-08-22T14:27:58.007Z,1.80
2022-08-22T14:30:29.574Z,1.70
2022-08-22T14:33:05.083Z,1.70
2022-08-22T14:35:38.205Z,1.80
2022-08-22T14:38:30.282Z,1.43
2022-08-22T14:41:03.306Z,1.53
2022-08-22T14:43:50.703Z,1.50
2022-08-22T14:46:26.557Z,1.63
2022-08-22T14:49:14.481Z,1.33
2022-08-22T14:51:50.883Z,1.10
2022-08-22T14:54:22.655Z,1.60
2022-08-22T14:56:59.348Z,1.40
2022-08-22T14:59:38.979Z,1.33
2022-08-22T15:02:11.351Z,1.20
2022-08-22T15:04:42.042Z,1.30
2022-08-22T15:07:11.741Z,1.83
2022-08-22T15:09:44.304Z,1.50
2022-08-22T15:12:24.898Z,1.63
2022-08-22T15:14:57.121Z,1.40
2022-08-22T15:17:44.201Z,1.57
2022-08-22T15:20:35.386Z,1.47
2022-08-22T15:23:10.392Z,1.70
2022-08-22T15:25:41.742Z,1.60
2022-08-22T15:28:20.741Z,1.23
2022-08-22T15:31:03.800Z,1.53
2022-08-22T15:33:37.821Z,1.43
2022-08-22T15:36:15.664Z,1.43
2022-08-22T15:38:49.987Z,1.50
2022-08-22T15:41:38.324Z,1.60
2022-08-22T15:44:14.977Z,1.50
2022-08-22T15:47:31.505Z,1.50
2022-08-22T15:50:06.017Z,1.57
2022-08-22T15:53:05.006Z,1.53
2022-08-22T15:55:35.428Z,1.73
2022-08-22T15:58:09.907Z,1.60
2022-08-22T16:00:47.487Z,1.40
2022-08-22T16:03:32.091Z,1.70
2022-08-22T16:06:04.272Z,1.40
2022-08-22T16:08:49.800Z,1.33
2022-08-22T16:11:32.976Z,1.33
2022-08-22T16:14:24.083Z,1.40
2022-08-22T16:17:02.274Z,1.40
2022-08-22T16:19:33.867Z,1.30
2022-08-22T16:22:13.433Z,1.80
2022-08-22T16:25:11.704Z,1.50
2022-08-22T16:27:55.487Z,1.27
2022-08-22T16:30:39.566Z,1.20
2022-08-22T16:33:14.845Z,1.13
2022-08-22T16:36:25.990Z,1.25
2022-08-22T16:38:57.921Z,1.60
2022-08-22T16:41:35.461Z,1.30
2022-08-22T16:44:15.897Z,1.10
2022-08-22T16:46:47.829Z,1.40
2022-08-22T16:49:27.534Z,1.30
2022-08-22T16:52:29.027Z,1.58
2022-08-22T16:55:06.626Z,1.20
2022-08-22T16:57:59.326Z,1.30
2022-08-22T17:00:41.314Z,1.50
2022-08-22T17:03:18.135Z,1.50
2022-08-22T17:05:57.242Z,1.97
2022-08-22T17:08:55.385Z,1.63
2022-08-22T17:11:34.210Z,1.80
2022-08-22T17:14:17.484Z,1.60
2022-08-22T17:16:57.172Z,1.47
2022-08-22T17:19:39.229Z,1.50
2022-08-22T17:22:18.638Z,1.67
2022-08-22T17:24:55.137Z,1.60
2022-08-22T17:27:34.957Z,1.53
2022-08-22T17:30:09.192Z,1.77
2022-08-22T17:32:59.089Z,1.37
2022-08-22T17:35:45.029Z,1.67
2022-08-22T17:38:25.560Z,1.30
2022-08-22T17:41:02.482Z,1.93
2022-08-22T17:43:56.106Z,2.70
2022-08-22T17:46:42.506Z,1.60
2022-08-22T17:49:20.820Z,1.73
2022-08-22T17:51:55.963Z,1.50
2022-08-22T17:54:32.735Z,1.50
2022-08-22T17:57:06.353Z,1.40
2022-08-22T17:59:57.688Z,1.70
2022-08-22T18:02:33.245Z,1.50
2022-08-22T18:05:07.135Z,1.50
2022-08-22T18:07:53.875Z,1.83
2022-08-22T18:10:31.481Z,1.60
2022-08-22T18:13:07.438Z,2.10
2022-08-22T18:15:46.020Z,1.60
2022-08-22T18:18:24.859Z,1.80
2022-08-22T18:21:02.469Z,2.10
2022-08-22T18:23:40.143Z,2.00
2022-08-22T18:26:21.533Z,2.23
2022-08-22T18:28:55.877Z,1.77
2022-08-22T18:31:47.368Z,2.07
2022-08-22T18:34:28.825Z,2.53
2022-08-22T18:37:03.409Z,2.70
2022-08-22T18:39:40.782Z,2.33
2022-08-22T18:42:19.100Z,2.03
2022-08-22T18:44:47.086Z,2.30
2022-08-22T18:47:20.226Z,2.00
2022-08-22T18:49:54.153Z,2.20
2022-08-22T18:52:43.067Z,3.13
2022-08-22T18:55:50.634Z,4.13
2022-08-22T18:58:42.331Z,3.00
2022-08-22T19:01:44.338Z,3.80
2022-08-22T19:04:30.402Z,2.60
2022-08-22T19:07:17.311Z,2.20
2022-08-22T19:10:20.558Z,2.20
2022-08-22T19:13:07.968Z,2.03
2022-08-22T19:15:50.600Z,1.97
2022-08-22T19:18:37.207Z,2.50
2022-08-22T19:21:35.850Z,2.03
2022-08-22T19:24:08.898Z,2.30
2022-08-22T19:26:41.153Z,2.30
2022-08-22T19:29:44.551Z,2.10
2022-08-22T19:32:33.603Z,2.17
2022-08-22T19:35:20.154Z,2.60
2022-08-22T19:37:57.675Z,2.20
2022-08-22T19:41:04.358Z,2.60
2022-08-22T19:43:36.748Z,2.57
2022-08-22T19:46:08.122Z,2.60
2022-08-22T19:48:45.444Z,1.90
2022-08-22T19:51:24.677Z,2.00
2022-08-22T19:54:16.507Z,2.47
2022-08-22T19:57:06.825Z,1.90
2022-08-22T19:59:50.746Z,2.40
2022-08-22T20:02:31.817Z,1.93
2022-08-22T20:05:25.341Z,1.80
2022-08-22T20:08:15.289Z,1.90
2022-08-22T20:10:58.563Z,1.83
2022-08-22T20:13:29.184Z,2.53
2022-08-22T20:16:16.059Z,2.20
2022-08-22T20:19:16.558Z,2.67
2022-08-22T20:21:50.377Z,2.17
2022-08-22T20:24:25.984Z,1.73
2022-08-22T20:27:13.478Z,2.33
2022-08-22T20:29:49.064Z,2.13
2022-08-22T20:32:21.121Z,2.43
2022-08-22T20:34:54.417Z,2.20
2022-08-22T20:37:40.419Z,2.60
2022-08-22T20:40:53.272Z,2.30
2022-08-22T20:43:28.423Z,2.40
2022-08-22T20:46:08.197Z,2.30
2022-08-22T20:48:44.062Z,2.60
2022-08-22T20:51:16.528Z,1.90
2022-08-22T20:53:52.816Z,2.30
2022-08-22T20:56:34.693Z,2.60
2022-08-22T20:59:16.758Z,2.37
2022-08-22T21:01:46.494Z,2.10
2022-08-22T21:04:18.768Z,2.00
2022-08-22T21:06:46.758Z,2.00
2022-08-22T21:09:36.210Z,2.50
2022-08-22T21:12:09.195Z,2.37
2022-08-22T21:14:45.864Z,2.60
2022-08-22T21:17:20.177Z,2.33
2022-08-22T21:19:50.480Z,2.67
2022-08-22T21:22:25.491Z,7.93
2022-08-22T21:24:56.546Z,7.97
2022-08-22T21:27:29.762Z,3.03
2022-08-22T21:30:01.120Z,18.37
2022-08-22T21:32:34.974Z,25.10
2022-08-22T21:35:04.812Z,4.50
2022-08-22T21:37:39.682Z,2.40
2022-08-22T21:40:16.909Z,2.13
2022-08-22T21:42:59.399Z,2.20
2022-08-22T21:45:32.449Z,1.90
2022-08-22T21:48:00.752Z,1.80
2022-08-22T21:50:38.082Z,2.00
2022-08-22T21:53:12.059Z,1.83
2022-08-22T21:55:44.242Z,2.10
2022-08-22T21:58:36.613Z,2.30
2022-08-22T22:01:28.609Z,1.90
2022-08-22T22:03:57.681Z,1.90
2022-08-22T22:06:26.542Z,1.70
2022-08-22T22:08:55.133Z,1.87
2022-08-22T22:11:23.457Z,1.70
2022-08-22T22:13:51.494Z,2.20
2022-08-22T22:16:25.679Z,1.40
2022-08-22T22:18:55.075Z,1.97
2022-08-22T22:21:25.377Z,1.83
2022-08-22T22:23:53.613Z,1.90
2022-08-22T22:26:26.962Z,1.80
2022-08-22T22:28:54.963Z,1.90
2022-08-22T22:31:22.870Z,2.10
2022-08-22T22:33:53.187Z,2.30
2022-08-22T22:36:26.473Z,2.00
2022-08-22T22:38:55.085Z,1.60
2022-08-22T22:41:25.384Z,1.70
2022-08-22T22:43:53.878Z,1.70
2022-08-22T22:46:22.131Z,1.87
2022-08-22T22:48:50.516Z,1.60
2022-08-22T22:51:18.486Z,1.70
2022-08-22T22:53:48.091Z,1.87
2022-08-22T22:56:21.258Z,1.70
2022-08-22T22:58:59.222Z,2.00
2022-08-22T23:02:00.455Z,1.67
2022-08-22T23:04:29.079Z,1.73
2022-08-22T23:07:00.217Z,1.60
2022-08-22T23:09:38.781Z,2.30
2022-08-22T23:12:13.759Z,1.70
2022-08-22T23:14:42.489Z,1.80
2022-08-22T23:17:10.695Z,1.90
2022-08-22T23:19:39.170Z,1.60
2022-08-22T23:22:08.069Z,1.77
2022-08-22T23:24:39.833Z,1.90
2022-08-22T23:27:09.316Z,1.57
2022-08-22T23:29:38.432Z,1.90
2022-08-22T23:32:06.793Z,1.50
2022-08-22T23:34:37.226Z,2.10
2022-08-22T23:37:07.750Z,1.87
2022-08-22T23:39:38.133Z,2.10
2022-08-22T23:42:07.866Z,1.80
2022-08-22T23:44:38.322Z,1.83
2022-08-22T23:47:08.263Z,2.10
2022-08-22T23:49:37.440Z,1.87
2022-08-22T23:52:09.239Z,1.50
2022-08-22T23:54:38.658Z,2.30
2022-08-22T23:57:11.811Z,1.80
2022-08-22T23:59:48.422Z,1.60
